Pagrindinis puslapis
METAR-TAF:

METAR-TAF

Oro uostai :

Kororas, Babeltuapas, Palau

platuma: 07-22N, ilguma: 134-32E, Aukštis: 54 m

Dabartinis oras

Ataskaita buvo paskelbta 50 minutes, ne 07:50 UTC
Vėjas 11 kt iš Šiaurės Rytų su gūsio iki 20 kt
Temperatūra 28°C
Drėgmė 84%
Slėgis 1010 hPa
Matomumas: 22.5 km
Su prošvaistėmis ne aukštis 1600 ft, Liūtiniai kamuoliniai debesys.
Su prošvaistėmis ne aukštis 11000 ft
Apsiniaukę ne aukštis 29000 ft

METAR: PTRO 230750Z 05011G20KT 14SM BKN016CB BKN110 OVC290 28/25 A2982 RMK CB ALQDS MOV W

Laikas: 17:40 (08:40 UTC)

Prognozė

Ataskaita buvo paskelbta 3 valandos ir 2 minutes, ne 05:38 UTC
Prognozė galioja nuo 23 metu 06 UTC su 24 metu 06 UTC
Vėjas 14 kt iš Rytų/Šiaurės Rytų su gūsio iki 20 kt
Matomumas: 10 km
Išsisklaidę debesys ne aukštis 1600 ft
Su prošvaistėmis ne aukštis 10000 ft
Liūtis kaimynystėje

TAF: PTRO 230538Z 2306/2406 06014G20KT P6SM VCSH SCT016 BKN100

Orai ataskaitas ir orų prognozės (METAR, TAF).

turimą stotys yra geltonos ir raudonos taškus žemėlapyje.

Perkelti pele per norėdami pamatyti stoties vardą.

Tada spustelėkite, norėdami matyti oro stebėjimo ir prognozės.

Norėdami pakeisti žemėlapį: spustelėkite ant žalios mygtukų su juodo kryžiaus žemyn,; žalią mygtuką su brūkšneliu, jei norite nutolinti; arba žalių rodyklių gretimoms žemėlapius.


METAR-TAF: